Muir Army Air Field (Fort Indiantown Gap) Airport
KMUI : now visible

Airfield :











YOU CAN JOIN US ON...

 
LOGIN :

Register | Disclaimer

   EN    FR    IT 

 









Legend :    VFR   Marginal VFR   IFR   Intensive IFR   Very Intensive IFR
Visi :
Ceiling :
>= 8 km
>= 3000ft
5 to 8 km
1000 to 3000 ft
1500m to 5 km
500 to 1000 ft
800 to 1500m
200 to 500 ft
< 800m
< 200 ft
Symbols :   Thunderstorms  Fog  Heavy snow  Heavy precipitations  Wind > 20 kt






- Airport Elevation : 488 ft


KMUI - Muir Army Air Field (Fort Indiantown Gap)

CURRENT METAR :
  • 222356Z 00000KT 10SM SCT050 OVC075 12/09 A2996 RMK AO2A SLP149 T01160090 10169 20116 53007

EXPIRED METARs :
  • 222256Z 00000KT 10SM SCT055 BKN080 13/09 A2994 RMK AO2A SLP142 T01310092
  • 222156Z 28003KT 10SM FEW036 BKN080 16/08 A2994 RMK AO2A SLP141 T01560083

TAF TAF KMUI
Valid from the 22 at 19:00 until the 24 at 01:00 UTC


221900Z 2219/2401 29009KT 9999 BKN032 QNH2990INS
BECMG 2305/2306 VRB06KT 9000 -SHRA OVC025 QNH2990INS
TEMPO 2312/2316 BKN009 OVC015
BECMG 2316/2317 26006KT 9999 NSW BKN030 QNH2993INS
BECMG 2323/2324 28006KT 9999 SCT030 BKN050 QNH2998INS TX17/2219Z TN08/2310Z LAST NO AMDS AFT 2304 NEXT 2511
KZNY FIR / North America



MET'MAP, your aeronautical weather chart ! - Copyright ORBIFLY December 2007 - Disclaimer

ORBIFLY MET'MAP TEAM :

Programming & Development : Alexandra Zaïnal
Concept & original design : Baudouin d'Aumeries
Assistance for programming : Marc-Olivier Méhu
Technical & hardware support : Manuel Goepfert

Contact : metmap@orbifly.com




SOURCES & CREDITS :

   NOAA       Earth
Advisory